Time;durP1;ratioP1;P1;durP2;ratioP2;P2;SDS_P1;SDS_P2;PMS_P1;PMS_P2;Temp;Humidity;BMP_temperature;BMP_pressure;BME280_temperature;BME280_humidity;BME280_pressure;Samples;Min_cycle;Max_cycle;Signal;HPM_P1;HPM_P2
2021/09/11 00:01:06;;;;;;;;;3.50;3.50;;;;;20.72;63.21;101473.28;5020822;28;45286;-82
2021/09/11 00:03:33;;;;;;;;;3.25;2.75;;;;;20.76;63.91;101474.25;5018242;28;45295;-80
2021/09/11 00:05:58;;;;;;;;;2.25;2.00;;;;;20.74;63.18;101475.97;5017392;28;45258;-83
2021/09/11 00:08:24;;;;;;;;;3.50;3.00;;;;;20.70;63.91;101482.03;5017743;28;45247;-82
2021/09/11 00:10:50;;;;;;;;;5.00;3.50;;;;;20.68;63.54;101475.88;5023481;28;45281;-82
2021/09/11 00:13:15;;;;;;;;;4.00;3.00;;;;;20.66;62.98;101478.50;5037193;28;46399;-82
2021/09/11 00:15:41;;;;;;;;;5.00;3.25;;;;;20.65;63.19;101475.81;5039056;28;45242;-82
2021/09/11 00:18:06;;;;;;;;;3.00;3.00;;;;;20.65;63.33;101473.19;5017169;28;45279;-82
2021/09/11 00:20:32;;;;;;;;;4.50;4.50;;;;;20.64;63.14;101474.03;5033165;28;45420;-82
2021/09/11 00:23:00;;;;;;;;;2.75;2.75;;;;;20.62;63.16;101474.03;5017216;28;45381;-82
2021/09/11 00:25:26;;;;;;;;;4.00;3.00;;;;;20.57;62.68;101463.44;5024550;28;45766;-82
2021/09/11 00:27:52;;;;;;;;;4.50;4.25;;;;;20.56;63.14;101473.97;5018510;28;45296;-81
2021/09/11 00:30:18;;;;;;;;;3.75;2.75;;;;;20.56;62.83;101476.59;5033170;28;45255;-82
2021/09/11 00:32:44;;;;;;;;;2.50;2.50;;;;;20.51;62.95;101471.28;5021753;28;45428;-82
2021/09/11 00:35:17;;;;;;;;;3.00;3.00;;;;;20.51;62.51;101465.09;5037052;28;45279;-82
2021/09/11 00:37:43;;;;;;;;;3.00;2.75;;;;;20.46;62.96;101475.56;5036937;28;45373;-82
2021/09/11 00:40:11;;;;;;;;;2.50;2.50;;;;;20.39;62.77;101474.59;5037612;28;45530;-82
2021/09/11 00:42:37;;;;;;;;;2.50;2.50;;;;;20.37;62.85;101475.44;5036429;28;45547;-82
2021/09/11 00:45:04;;;;;;;;;4.50;4.00;;;;;20.37;62.47;101467.53;5036689;28;45664;-82
2021/09/11 00:47:30;;;;;;;;;3.00;3.00;;;;;20.38;62.35;101472.81;5022841;28;45445;-82
2021/09/11 00:49:56;;;;;;;;;3.00;3.00;;;;;20.35;63.09;101466.63;5017205;28;45508;-82
2021/09/11 00:52:22;;;;;;;;;4.00;3.25;;;;;20.35;62.64;101474.53;5024656;28;45189;-82
2021/09/11 00:54:49;;;;;;;;;4.00;4.00;;;;;20.33;62.90;101468.34;5019097;28;45438;-82
2021/09/11 00:57:15;;;;;;;;;5.25;4.50;;;;;20.36;62.53;101476.28;5017530;28;45461;-82
2021/09/11 00:59:41;;;;;;;;;2.75;2.75;;;;;20.39;62.69;101486.88;5017222;28;45347;-82
2021/09/11 01:02:08;;;;;;;;;4.75;3.00;;;;;20.38;62.74;101480.72;5016784;28;45386;-82
2021/09/11 01:04:33;;;;;;;;;2.50;2.50;;;;;20.33;62.87;101473.59;5016830;28;45338;-82
2021/09/11 01:06:59;;;;;;;;;2.25;2.00;;;;;20.35;62.22;101474.53;5016601;28;45456;-82
2021/09/11 01:09:25;;;;;;;;;3.50;3.00;;;;;20.35;61.97;101478.06;5017203;28;45410;-82
2021/09/11 01:11:52;;;;;;;;;3.00;3.00;;;;;20.36;62.61;101481.56;5016662;28;45439;-82
2021/09/11 01:14:18;;;;;;;;;5.50;3.50;;;;;20.33;61.91;101478.88;5017799;28;45593;-82
2021/09/11 01:16:43;;;;;;;;;5.50;3.25;;;;;20.26;62.02;101485.78;5018195;28;45253;-82
2021/09/11 01:19:09;;;;;;;;;4.25;4.25;;;;;20.29;62.07;101487.59;5023448;28;45606;-82
2021/09/11 01:21:35;;;;;;;;;2.25;2.25;;;;;20.22;62.14;101490.09;5024568;28;45285;-82
2021/09/11 01:24:00;;;;;;;;;4.25;4.00;;;;;20.16;62.53;101491.75;5021204;28;45383;-82
2021/09/11 01:26:26;;;;;;;;;3.50;3.50;;;;;20.14;62.22;101496.13;5016775;28;45337;-82
2021/09/11 01:28:52;;;;;;;;;3.00;3.00;;;;;20.10;62.32;101495.16;5016834;28;45433;-82
2021/09/11 01:31:18;;;;;;;;;3.00;2.75;;;;;20.09;62.43;101502.19;5031767;28;45825;-82
2021/09/11 01:33:44;;;;;;;;;3.75;3.75;;;;;20.05;62.77;101499.47;5026392;28;45460;-82
2021/09/11 01:36:09;;;;;;;;;5.50;4.00;;;;;20.02;62.63;101497.69;5036628;28;45362;-82
2021/09/11 01:38:35;;;;;;;;;2.25;2.00;;;;;20.00;62.05;101494.16;5036519;28;45314;-82
2021/09/11 01:41:00;;;;;;;;;3.00;3.00;;;;;19.99;62.35;101497.63;5034627;28;47721;-82
2021/09/11 01:43:32;;;;;;;;;2.75;2.75;;;;;19.97;62.39;101506.34;5051744;28;45430;-82
2021/09/11 01:45:58;;;;;;;;;3.00;1.00;;;;;19.92;61.74;101499.25;5041656;28;45338;-82
2021/09/11 01:48:26;;;;;;;;;5.25;3.25;;;;;19.93;61.97;101503.66;5044802;28;45400;-82
2021/09/11 01:50:52;;;;;;;;;2.25;2.25;;;;;19.88;61.71;101501.81;5041769;28;45422;-82
2021/09/11 01:53:17;;;;;;;;;4.00;4.00;;;;;19.85;61.72;101497.38;5039626;28;45263;-82
2021/09/11 01:55:43;;;;;;;;;3.75;2.25;;;;;19.81;61.66;101495.53;5018261;28;45224;-82
2021/09/11 01:58:09;;;;;;;;;3.00;3.00;;;;;19.77;62.14;101496.31;5031958;28;45296;-82
2021/09/11 02:00:34;;;;;;;;;3.50;3.00;;;;;19.72;62.23;101498.00;5046767;28;46801;-82
2021/09/11 02:03:00;;;;;;;;;3.00;3.00;;;;;19.69;61.54;101498.84;5035825;28;45211;-82
2021/09/11 02:05:25;;;;;;;;;7.00;3.75;;;;;19.67;61.94;101492.66;5036152;28;45177;-82
2021/09/11 02:07:51;;;;;;;;;2.75;2.75;;;;;19.68;61.72;101494.44;5034761;28;45520;-82
2021/09/11 02:10:19;;;;;;;;;2.50;2.00;;;;;19.68;61.90;101488.28;5051844;28;45568;-82
2021/09/11 02:12:45;;;;;;;;;2.00;1.00;;;;;19.67;61.71;101492.66;5040038;28;45291;-82
2021/09/11 02:15:11;;;;;;;;;1.25;1.25;;;;;19.70;61.67;101503.25;5044749;28;45397;-82
2021/09/11 02:17:38;;;;;;;;;4.50;2.00;;;;;19.72;61.69;101503.25;5042269;28;45544;-82
2021/09/11 02:20:05;;;;;;;;;4.00;3.50;;;;;19.72;61.96;101505.88;5035858;28;46140;-82
2021/09/11 02:22:30;;;;;;;;;3.00;3.00;;;;;19.69;61.19;101506.72;5034828;28;45657;-82
2021/09/11 02:24:56;;;;;;;;;3.00;2.25;;;;;19.63;61.86;101502.22;5015867;28;45286;-82
2021/09/11 02:27:21;;;;;;;;;2.25;2.00;;;;;19.63;62.05;101499.63;5016102;28;45665;-82
2021/09/11 02:29:47;;;;;;;;;1.00;1.00;;;;;19.65;61.92;101507.50;5015424;28;45926;-82
2021/09/11 02:32:13;;;;;;;;;2.00;2.00;;;;;19.62;61.47;101507.44;5015693;28;45327;-82
2021/09/11 02:34:39;;;;;;;;;3.50;2.50;;;;;19.62;61.20;101503.09;5015951;28;45350;-82
2021/09/11 02:37:05;;;;;;;;;1.25;1.25;;;;;19.63;61.73;101496.97;5016183;28;45363;-82
2021/09/11 02:39:30;;;;;;;;;1.50;1.50;;;;;19.64;61.82;101501.38;5034421;28;47788;-82
2021/09/11 02:41:56;;;;;;;;;3.00;3.00;;;;;19.66;61.76;101501.41;5026780;28;45398;-82
2021/09/11 02:44:22;;;;;;;;;1.50;1.50;;;;;19.64;61.58;101493.50;5027700;28;45271;-82
2021/09/11 02:46:47;;;;;;;;;1.50;1.50;;;;;19.63;61.50;101490.81;5026355;28;45601;-82
2021/09/11 02:49:13;;;;;;;;;3.25;3.25;;;;;19.58;61.36;101496.00;5019334;28;45339;-82
2021/09/11 02:51:38;;;;;;;;;2.75;2.75;;;;;19.55;60.85;101493.31;5052598;28;45549;-82
2021/09/11 02:54:04;;;;;;;;;2.00;2.00;;;;;19.54;61.39;101495.91;5040418;28;45243;-82
2021/09/11 02:56:30;;;;;;;;;3.00;3.00;;;;;19.51;61.18;101502.00;5040934;28;45242;-82
2021/09/11 02:58:55;;;;;;;;;2.00;2.00;;;;;19.46;61.47;101494.03;5039805;28;45306;-81
2021/09/11 03:01:22;;;;;;;;;3.00;2.00;;;;;19.44;61.40;101495.75;5039748;28;45315;-82
2021/09/11 03:03:48;;;;;;;;;2.00;2.00;;;;;19.40;61.57;101493.03;5039248;28;45291;-82
2021/09/11 03:06:14;;;;;;;;;1.50;1.25;;;;;19.36;61.43;101494.72;5039004;28;45324;-82
2021/09/11 03:08:39;;;;;;;;;2.00;2.00;;;;;19.33;61.25;101503.41;5046690;28;45535;-83
2021/09/11 03:11:05;;;;;;;;;2.00;2.00;;;;;19.31;61.82;101512.09;5046918;28;45465;-82
2021/09/11 03:13:30;;;;;;;;;5.25;2.25;;;;;19.28;61.31;101493.66;5034536;28;45185;-82
2021/09/11 03:15:57;;;;;;;;;3.75;3.75;;;;;19.27;61.80;101491.91;5020546;28;45239;-83
2021/09/11 03:18:23;;;;;;;;;2.50;2.50;;;;;19.29;61.27;101496.34;5018314;28;46178;-83
2021/09/11 03:20:50;;;;;;;;;3.00;2.50;;;;;19.28;61.78;101493.66;5018082;28;45247;-82
2021/09/11 03:23:16;;;;;;;;;3.00;3.00;;;;;19.25;61.66;101493.63;5018485;28;45193;-82
2021/09/11 03:25:42;;;;;;;;;3.75;3.75;;;;;19.24;61.29;101497.09;5019054;28;45808;-82
2021/09/11 03:28:08;;;;;;;;;2.00;2.00;;;;;19.22;61.33;101501.44;5018560;28;46174;-83
2021/09/11 03:30:34;;;;;;;;;4.00;2.00;;;;;19.22;61.99;101498.81;5018179;28;45390;-82
2021/09/11 03:33:00;;;;;;;;;3.00;3.00;;;;;19.21;61.97;101502.28;5018278;28;45489;-82
2021/09/11 03:35:26;;;;;;;;;2.50;2.50;;;;;19.19;61.83;101497.00;5026556;28;45559;-81
2021/09/11 03:37:53;;;;;;;;;4.75;2.75;;;;;19.14;61.98;101488.13;5026615;28;46230;-82
2021/09/11 03:40:19;;;;;;;;;4.25;3.00;;;;;19.13;62.30;101489.00;5038642;28;45600;-82
2021/09/11 03:42:45;;;;;;;;;2.00;2.00;;;;;19.09;61.60;101492.44;5018728;28;45239;-82
2021/09/11 03:45:11;;;;;;;;;2.50;2.50;;;;;19.05;62.25;101488.84;5018881;28;45185;-82
2021/09/11 03:47:37;;;;;;;;;4.25;3.00;;;;;19.05;61.91;101494.09;5035464;28;45807;-82
2021/09/11 03:50:05;;;;;;;;;2.25;2.25;;;;;19.02;62.06;101494.03;5036176;28;45630;-82
2021/09/11 03:52:31;;;;;;;;;2.00;2.00;;;;;19.01;62.55;101490.50;5030769;28;45264;-82
2021/09/11 03:54:56;;;;;;;;;3.25;3.25;;;;;19.00;62.36;101487.88;5033578;28;45324;-82
2021/09/11 03:57:22;;;;;;;;;3.00;3.00;;;;;19.00;62.13;101495.72;5030298;28;46070;-82
2021/09/11 03:59:48;;;;;;;;;3.00;3.00;;;;;19.00;62.14;101498.34;5032973;28;45374;-82
2021/09/11 04:02:13;;;;;;;;;4.50;4.00;;;;;18.96;62.15;101497.41;5018806;28;45369;-82
2021/09/11 04:04:39;;;;;;;;;2.00;2.00;;;;;18.98;62.04;101500.06;5024129;28;45505;-82
2021/09/11 04:07:05;;;;;;;;;2.25;2.25;;;;;18.96;62.26;101497.41;5025546;28;45227;-82
2021/09/11 04:09:30;;;;;;;;;3.50;1.00;;;;;18.98;62.15;101506.22;5019925;28;45474;-82
2021/09/11 04:11:56;;;;;;;;;3.00;2.00;;;;;18.94;62.39;101501.75;5017723;28;45180;-82
2021/09/11 04:14:21;;;;;;;;;3.00;3.00;;;;;18.92;62.19;101507.78;5018113;28;45367;-82
2021/09/11 04:16:47;;;;;;;;;4.50;2.00;;;;;18.88;62.45;101510.31;5017322;28;46078;-82
2021/09/11 04:19:12;;;;;;;;;1.00;1.00;;;;;18.90;62.32;101510.34;5017428;28;45360;-82
2021/09/11 04:21:38;;;;;;;;;2.50;2.50;;;;;18.91;62.28;101516.50;5033205;28;45494;-82
2021/09/11 04:24:05;;;;;;;;;2.25;2.00;;;;;18.92;62.26;101516.53;5017591;28;45318;-82
2021/09/11 04:26:32;;;;;;;;;1.00;1.00;;;;;18.91;62.13;101512.13;5017287;28;45440;-82
2021/09/11 04:28:57;;;;;;;;;2.00;1.00;;;;;18.90;61.93;101517.34;5017549;28;45547;-82
2021/09/11 04:31:23;;;;;;;;;2.25;2.00;;;;;18.86;61.75;101514.66;5020442;28;45288;-82
2021/09/11 04:33:48;;;;;;;;;2.00;2.00;;;;;18.81;62.07;101512.78;5022879;28;45476;-82
2021/09/11 04:36:14;;;;;;;;;2.50;2.50;;;;;18.80;62.19;101511.00;5035962;28;46241;-83
2021/09/11 04:38:41;;;;;;;;;2.75;2.75;;;;;18.79;61.63;101515.38;5033395;28;45270;-82
2021/09/11 04:41:08;;;;;;;;;2.00;2.00;;;;;18.77;61.95;101500.47;5032837;28;45332;-82
2021/09/11 04:43:34;;;;;;;;;2.25;2.25;;;;;18.79;62.17;101506.63;5017787;28;45370;-82
2021/09/11 04:46:01;;;;;;;;;3.25;2.25;;;;;18.78;62.08;101503.09;5037961;28;45419;-82
2021/09/11 04:48:27;;;;;;;;;2.25;2.00;;;;;18.79;62.25;101510.13;5037173;28;45364;-82
2021/09/11 04:50:53;;;;;;;;;3.00;3.00;;;;;18.78;62.41;101513.59;5036982;28;45327;-82
2021/09/11 04:53:18;;;;;;;;;2.00;2.00;;;;;18.77;62.15;101510.97;5028263;28;45671;-83
2021/09/11 04:55:44;;;;;;;;;3.50;3.00;;;;;18.78;62.63;101512.72;5016826;28;46423;-82
2021/09/11 04:58:10;;;;;;;;;2.00;2.00;;;;;18.78;62.46;101512.72;5024765;28;45247;-82
2021/09/11 05:00:35;;;;;;;;;3.25;2.00;;;;;18.78;62.05;101513.59;5022268;28;45254;-82
2021/09/11 05:03:01;;;;;;;;;3.75;3.00;;;;;18.78;61.99;101525.84;5019699;28;45499;-82
2021/09/11 05:05:27;;;;;;;;;2.75;2.75;;;;;18.72;62.28;101518.72;5034496;28;46265;-82
2021/09/11 05:07:56;;;;;;;;;2.75;2.25;;;;;18.73;62.50;101523.13;5036529;28;45540;-82
2021/09/11 05:10:22;;;;;;;;;2.75;2.00;;;;;18.69;61.86;101516.03;5036869;28;45529;-83
2021/09/11 05:12:49;;;;;;;;;2.25;2.25;;;;;18.68;62.26;101519.50;5037044;28;45564;-82
2021/09/11 05:15:14;;;;;;;;;3.00;3.00;;;;;18.65;62.28;101522.94;5036537;28;45650;-82
2021/09/11 05:17:40;;;;;;;;;2.25;2.25;;;;;18.65;62.72;101527.28;5036811;28;45398;-82
2021/09/11 05:20:06;;;;;;;;;4.00;3.00;;;;;18.63;62.40;101528.97;5036383;28;45299;-83
2021/09/11 05:22:32;;;;;;;;;4.00;3.00;;;;;18.62;62.64;101529.88;5036976;28;45428;-83
2021/09/11 05:24:57;;;;;;;;;3.50;2.50;;;;;18.59;62.32;101528.03;5041131;28;46128;-83
2021/09/11 05:27:23;;;;;;;;;4.75;3.25;;;;;18.57;62.57;101527.13;5039308;28;45456;-83
2021/09/11 05:29:48;;;;;;;;;3.50;3.50;;;;;18.56;62.96;101534.09;5038517;28;45302;-82
2021/09/11 05:32:14;;;;;;;;;3.00;3.00;;;;;18.54;62.67;101527.06;5038090;28;45392;-82
2021/09/11 05:34:40;;;;;;;;;5.50;4.00;;;;;18.53;63.00;101536.63;5036396;28;46098;-82
2021/09/11 05:37:06;;;;;;;;;5.50;3.25;;;;;18.50;62.85;101538.31;5034751;28;45422;-82
2021/09/11 05:39:31;;;;;;;;;4.00;3.50;;;;;18.49;62.90;101521.69;5036300;28;45409;-82
2021/09/11 05:41:57;;;;;;;;;3.75;3.75;;;;;18.50;62.90;101528.72;5029359;28;45426;-82
2021/09/11 05:44:23;;;;;;;;;3.00;3.00;;;;;18.51;62.81;101529.59;5016091;28;45869;-82
2021/09/11 05:46:48;;;;;;;;;3.25;3.25;;;;;18.49;63.09;101532.19;5015886;28;45667;-82
2021/09/11 05:49:14;;;;;;;;;4.00;3.00;;;;;18.50;62.87;101535.69;5037485;28;45333;-82
2021/09/11 05:51:40;;;;;;;;;3.00;2.00;;;;;18.52;62.71;101542.72;5039441;28;45565;-83
2021/09/11 05:54:05;;;;;;;;;4.50;3.50;;;;;18.52;62.96;101545.34;5057905;28;45734;-82
2021/09/11 05:56:31;;;;;;;;;2.25;2.25;;;;;18.54;63.05;101556.78;5034806;28;45312;-82
2021/09/11 05:58:56;;;;;;;;;5.25;5.25;;;;;18.50;63.03;101561.91;5025548;28;45362;-82
2021/09/11 06:01:22;;;;;;;;;6.50;4.25;;;;;18.47;62.72;101561.81;5026553;28;45571;-82
2021/09/11 06:03:48;;;;;;;;;3.00;3.00;;;;;18.45;63.17;101577.53;5030579;28;45775;-82
2021/09/11 06:06:13;;;;;;;;;3.50;3.25;;;;;18.46;62.96;101574.06;5027038;28;45369;-82
2021/09/11 06:08:39;;;;;;;;;5.00;3.50;;;;;18.44;63.30;101578.38;5037054;28;45275;-82
2021/09/11 06:11:04;;;;;;;;;2.00;2.00;;;;;18.46;62.73;101581.94;5037611;28;45371;-82
2021/09/11 06:13:30;;;;;;;;;3.75;3.00;;;;;18.46;63.02;101581.94;5040043;28;45465;-83
2021/09/11 06:15:56;;;;;;;;;2.75;2.75;;;;;18.48;62.73;101584.56;5031183;28;45445;-82
2021/09/11 06:18:21;;;;;;;;;4.75;3.50;;;;;18.48;62.86;101581.94;5036834;28;45403;-83
2021/09/11 06:20:47;;;;;;;;;3.00;3.00;;;;;18.49;62.68;101583.72;5040892;28;45350;-86
2021/09/11 06:23:13;;;;;;;;;4.00;3.00;;;;;18.51;62.92;101592.53;5048432;28;45376;-80
2021/09/11 06:25:38;;;;;;;;;3.25;2.50;;;;;18.49;62.49;101581.09;5045439;28;45286;-86
2021/09/11 06:28:04;;;;;;;;;2.00;1.50;;;;;18.49;62.61;101582.00;5043361;28;45256;-81
2021/09/11 06:30:30;;;;;;;;;4.75;3.00;;;;;18.50;62.74;101586.41;5040424;28;45555;-79
2021/09/11 06:32:56;;;;;;;;;2.00;2.00;;;;;18.50;62.21;101577.63;5026660;28;45184;-80
2021/09/11 06:35:21;;;;;;;;;2.00;2.00;;;;;18.52;62.43;101589.06;5020227;28;45432;-79
2021/09/11 06:37:47;;;;;;;;;1.00;1.00;;;;;18.52;62.23;101583.81;5022033;28;45390;-87
2021/09/11 06:40:13;;;;;;;;;2.25;0.75;;;;;18.54;62.67;101585.63;5022464;28;45454;-83
2021/09/11 06:42:39;;;;;;;;;3.75;1.50;;;;;18.55;62.55;101584.78;5026111;28;45450;-85
2021/09/11 06:45:05;;;;;;;;;3.00;3.00;;;;;18.56;62.72;101590.91;5038274;28;45430;-83
2021/09/11 06:47:30;;;;;;;;;1.25;1.25;;;;;18.55;62.73;101586.53;5045311;28;45349;-83
2021/09/11 06:49:56;;;;;;;;;2.25;2.00;;;;;18.55;62.58;101591.78;5036884;28;44835;-83
2021/09/11 06:52:23;;;;;;;;;2.75;2.75;;;;;18.54;62.85;101593.47;5031076;28;45380;-87
2021/09/11 06:54:49;;;;;;;;;0.00;0.00;;;;;18.58;62.50;101597.06;5032488;28;45316;-88
2021/09/11 06:57:15;;;;;;;;;3.00;3.00;;;;;18.56;62.72;101599.66;5037771;28;45453;-85
2021/09/11 06:59:40;;;;;;;;;1.25;1.25;;;;;18.55;62.40;101591.78;5034112;28;45775;-87
2021/09/11 07:02:07;;;;;;;;;3.50;3.00;;;;;18.57;62.36;101600.56;5035724;28;46177;-84
2021/09/11 07:04:33;;;;;;;;;3.50;2.00;;;;;18.56;62.53;101599.66;5026431;28;45857;-86
2021/09/11 07:06:58;;;;;;;;;3.50;2.25;;;;;18.60;62.75;101602.38;5025673;28;45479;-94
2021/09/11 07:09:24;;;;;;;;;2.00;2.00;;;;;18.58;62.31;101607.56;5038098;28;45360;-88
2021/09/11 07:11:49;;;;;;;;;1.50;1.00;;;;;18.63;62.51;101615.53;5024671;28;46460;-88
2021/09/11 07:14:16;;;;;;;;;2.00;1.75;;;;;18.61;62.35;101623.38;5036488;28;45499;-84
2021/09/11 07:16:44;;;;;;;;;0.00;0.00;;;;;18.61;62.28;101626.00;5041099;28;45413;-82
2021/09/11 07:19:11;;;;;;;;;2.00;2.00;;;;;18.60;62.54;101624.22;5037070;28;45261;-85
2021/09/11 07:21:37;;;;;;;;;3.50;2.75;;;;;18.57;62.55;101624.16;5023243;28;48109;-81
2021/09/11 07:24:04;;;;;;;;;1.50;1.25;;;;;18.59;62.57;101619.81;5033825;28;45921;-79
2021/09/11 07:26:29;;;;;;;;;3.50;3.00;;;;;18.67;62.74;101617.41;5043474;28;45335;-81
2021/09/11 07:28:55;;;;;;;;;2.00;1.00;;;;;18.69;62.18;101619.19;5022979;28;45455;-86
2021/09/11 07:31:21;;;;;;;;;3.25;2.00;;;;;18.71;62.12;101616.63;5033951;28;46399;-82
2021/09/11 07:33:47;;;;;;;;;1.00;1.00;;;;;18.71;62.27;101620.13;5038223;28;46031;-85
2021/09/11 07:36:13;;;;;;;;;2.75;1.00;;;;;18.74;62.10;101621.06;5028500;28;45318;-83
2021/09/11 07:38:39;;;;;;;;;1.25;0.75;;;;;18.76;62.02;101628.09;5018405;28;45412;-83
2021/09/11 07:41:05;;;;;;;;;1.25;0.75;;;;;18.78;62.08;101618.53;5018745;28;45269;-84
2021/09/11 07:43:31;;;;;;;;;2.00;1.00;;;;;18.86;61.88;101616.97;5024422;28;45247;-84
2021/09/11 07:45:58;;;;;;;;;3.00;2.00;;;;;18.91;62.04;101626.72;5025540;28;45281;-84
2021/09/11 07:48:24;;;;;;;;;3.75;2.75;;;;;18.94;61.35;101624.19;5023705;28;45418;-83
2021/09/11 07:50:50;;;;;;;;;3.00;2.00;;;;;18.97;61.37;101622.53;5019983;28;46169;-83
2021/09/11 07:53:16;;;;;;;;;2.50;1.25;;;;;19.01;61.51;101626.09;5034180;28;45508;-84
2021/09/11 07:55:42;;;;;;;;;2.75;2.00;;;;;19.05;61.55;101638.47;5018113;28;45523;-80
2021/09/11 07:58:09;;;;;;;;;3.00;3.00;;;;;19.03;60.93;101632.28;5021002;28;45560;-84
2021/09/11 08:00:34;;;;;;;;;2.75;2.00;;;;;19.02;61.02;101631.38;5019264;28;45339;-84
2021/09/11 08:03:00;;;;;;;;;0.50;0.50;;;;;19.04;60.66;101636.69;5019002;28;45247;-83
2021/09/11 08:05:26;;;;;;;;;1.00;1.00;;;;;19.02;60.37;101627.88;5018489;28;45415;-81
2021/09/11 08:07:52;;;;;;;;;1.50;1.00;;;;;19.05;60.57;101641.09;5018229;28;45637;-85
2021/09/11 08:10:18;;;;;;;;;0.75;0.00;;;;;19.10;60.43;101634.19;5025554;28;46120;-84
2021/09/11 08:12:44;;;;;;;;;0.00;0.00;;;;;19.10;59.25;101642.06;5025327;28;45666;-80
2021/09/11 08:15:10;;;;;;;;;2.00;1.00;;;;;19.08;59.31;101654.25;5020087;28;45390;-83
2021/09/11 08:17:36;;;;;;;;;0.25;0.00;;;;;19.06;58.77;101655.06;5025031;28;44828;-83
2021/09/11 08:20:04;;;;;;;;;1.00;1.00;;;;;19.08;58.87;101649.00;5019746;28;46250;-84
2021/09/11 08:22:30;;;;;;;;;1.50;1.00;;;;;19.09;58.71;101656.03;5018003;28;45171;-83
2021/09/11 08:24:56;;;;;;;;;1.00;1.00;;;;;19.11;59.51;101661.34;5017575;28;45366;-85
2021/09/11 08:27:23;;;;;;;;;0.50;0.50;;;;;19.14;59.07;101669.25;5016702;28;45677;-86
2021/09/11 08:29:48;;;;;;;;;1.75;1.00;;;;;19.22;59.40;101662.44;5017799;28;45453;-85
2021/09/11 08:32:14;;;;;;;;;1.00;1.00;;;;;19.29;59.26;101668.72;5018132;28;45315;-84
2021/09/11 08:34:39;;;;;;;;;1.00;1.00;;;;;19.33;58.55;101660.94;5018745;28;45387;-85
2021/09/11 08:37:05;;;;;;;;;1.00;1.00;;;;;19.34;57.91;101664.47;5025372;28;45419;-85
2021/09/11 08:39:31;;;;;;;;;1.00;0.50;;;;;19.33;58.19;101663.56;5024824;28;45489;-84
2021/09/11 08:41:57;;;;;;;;;1.00;1.00;;;;;19.33;58.10;101662.69;5020379;28;45338;-84
2021/09/11 08:44:24;;;;;;;;;1.75;0.75;;;;;19.33;58.21;101660.06;5017301;28;45263;-84
2021/09/11 08:46:51;;;;;;;;;2.25;1.00;;;;;19.30;58.10;101668.78;5017204;28;45312;-84
2021/09/11 08:49:18;;;;;;;;;0.75;0.75;;;;;19.30;57.58;101670.50;5016640;28;45348;-86
2021/09/11 08:51:43;;;;;;;;;1.75;1.75;;;;;19.32;57.64;101660.91;5015293;28;45836;-84
2021/09/11 08:54:10;;;;;;;;;0.75;0.75;;;;;19.32;57.46;101659.19;5019869;28;45371;-83
2021/09/11 08:56:40;;;;;;;;;0.00;0.00;;;;;19.35;57.42;101663.63;5018928;28;45268;-84
2021/09/11 08:59:10;;;;;;;;;2.00;1.00;;;;;19.38;57.63;101655.81;5019890;28;45318;-84
2021/09/11 09:01:36;;;;;;;;;1.75;1.00;;;;;19.42;57.99;101657.63;5022139;28;45830;-84
2021/09/11 09:04:03;;;;;;;;;3.00;1.00;;;;;19.46;57.75;101661.22;5025323;28;45342;-84
2021/09/11 09:06:31;;;;;;;;;0.25;0.25;;;;;19.48;56.53;101657.78;5026031;28;44856;-84
2021/09/11 09:09:09;;;;;;;;;0.00;0.00;;;;;19.51;56.72;101653.44;5022050;28;45317;-83
2021/09/11 09:11:36;;;;;;;;;0.50;0.50;;;;;19.54;56.46;101658.75;5017983;28;45370;-84
2021/09/11 09:14:06;;;;;;;;;1.75;0.00;;;;;19.57;56.21;101661.47;5017545;28;45467;-84
2021/09/11 09:16:47;;;;;;;;;3.00;1.00;;;;;19.57;55.88;101667.59;5018111;28;45311;-84
2021/09/11 09:19:15;;;;;;;;;1.00;0.00;;;;;19.58;56.10;101665.88;5020240;28;46245;-83
2021/09/11 09:21:43;;;;;;;;;3.00;0.00;;;;;19.60;56.07;101672.91;5021175;28;45209;-85
2021/09/11 09:24:11;;;;;;;;;1.25;1.25;;;;;19.61;55.69;101660.66;5026300;28;45432;-85
2021/09/11 09:26:51;;;;;;;;;0.50;0.25;;;;;19.65;55.72;101652.00;5026876;28;45624;-84
2021/09/11 09:29:18;;;;;;;;;0.25;0.25;;;;;19.70;56.20;101655.63;5030463;28;45409;-85
2021/09/11 09:31:45;;;;;;;;;2.75;1.75;;;;;19.73;55.63;101652.16;5033126;28;45176;-83
2021/09/11 09:34:34;;;;;;;;;1.50;1.50;;;;;19.73;55.96;101655.66;5033338;28;44725;-86
2021/09/11 09:37:02;;;;;;;;;2.00;2.00;;;;;19.75;55.65;101659.22;5032835;28;45258;-85
2021/09/11 09:39:29;;;;;;;;;1.25;1.25;;;;;19.83;55.95;101648.88;5032014;28;45340;-85
2021/09/11 09:42:02;;;;;;;;;1.50;1.50;;;;;19.92;55.92;101651.69;5030849;28;45318;-83
2021/09/11 09:44:28;;;;;;;;;1.00;1.00;;;;;19.98;55.27;101655.31;5027265;28;45338;-83
2021/09/11 09:46:55;;;;;;;;;2.25;1.50;;;;;20.03;55.24;101646.63;5032231;28;45342;-85
2021/09/11 09:49:24;;;;;;;;;2.25;2.25;;;;;20.12;54.70;101656.44;5031394;28;46170;-85
2021/09/11 09:51:50;;;;;;;;;3.00;1.75;;;;;20.21;54.31;101653.97;5055216;28;45268;-86
2021/09/11 09:54:18;;;;;;;;;3.25;1.00;;;;;20.29;54.18;101655.91;5030880;28;45181;-85
2021/09/11 09:56:44;;;;;;;;;1.50;1.50;;;;;20.29;54.17;101650.63;5047309;28;45516;-84
2021/09/11 09:59:10;;;;;;;;;1.50;1.00;;;;;20.27;54.56;101647.94;5034703;28;45403;-84
2021/09/11 10:01:37;;;;;;;;;1.25;1.25;;;;;20.29;53.50;101648.88;5041554;28;45252;-87
2021/09/11 10:04:14;;;;;;;;;1.00;1.00;;;;;20.27;52.98;101650.59;5040161;28;45161;-84
2021/09/11 10:06:42;;;;;;;;;3.00;1.00;;;;;20.30;52.80;101639.25;5031653;28;45165;-84
2021/09/11 10:09:10;;;;;;;;;3.00;1.00;;;;;20.29;52.72;101645.38;5037151;28;45247;-85
2021/09/11 10:11:42;;;;;;;;;2.75;1.50;;;;;20.25;52.40;101640.03;5034959;28;45346;-83
2021/09/11 10:14:14;;;;;;;;;1.00;1.00;;;;;20.23;52.48;101654.91;5036845;28;45461;-84
2021/09/11 10:16:44;;;;;;;;;1.00;1.00;;;;;20.24;52.52;101650.56;5035225;28;45584;-84
2021/09/11 10:19:16;;;;;;;;;2.25;2.00;;;;;20.25;51.98;101652.28;5036698;28;45189;-85
2021/09/11 10:21:42;;;;;;;;;1.00;1.00;;;;;20.24;52.02;101638.28;5037427;28;45580;-81
2021/09/11 10:24:13;;;;;;;;;2.00;2.00;;;;;20.25;52.45;101647.03;5030886;28;45330;-84
2021/09/11 10:26:46;;;;;;;;;2.00;1.75;;;;;20.24;52.48;101645.28;5038215;28;45165;-85
2021/09/11 10:29:35;;;;;;;;;1.00;1.00;;;;;20.25;52.81;101644.41;5039222;28;45402;-83
2021/09/11 10:32:24;;;;;;;;;2.00;2.00;;;;;20.30;52.50;101647.16;5038795;28;44993;-84
2021/09/11 10:34:56;;;;;;;;;2.50;2.00;;;;;20.32;52.89;101638.41;5035651;28;45358;-83
2021/09/11 10:37:46;;;;;;;;;2.75;2.75;;;;;20.41;52.59;101632.41;5037669;28;44797;-84
2021/09/11 10:40:29;;;;;;;;;2.25;2.00;;;;;20.52;52.61;101640.50;5037377;28;45417;-81
2021/09/11 10:43:06;;;;;;;;;2.25;2.25;;;;;20.62;52.47;101634.53;5025530;28;45412;-83
2021/09/11 10:46:02;;;;;;;;;3.00;2.00;;;;;20.66;52.18;101631.09;5026636;28;45383;-81
2021/09/11 10:48:42;;;;;;;;;3.00;3.00;;;;;20.71;52.41;101636.44;5030737;28;45246;-83
2021/09/11 10:51:24;;;;;;;;;2.00;2.00;;;;;20.80;52.68;101630.44;5023358;28;45522;-85
2021/09/11 10:53:57;;;;;;;;;3.00;3.00;;;;;20.86;52.90;101628.78;5022911;28;45767;-85
2021/09/11 10:56:41;;;;;;;;;2.00;2.00;;;;;20.89;52.27;101625.34;5025902;28;45231;-84
2021/09/11 10:59:16;;;;;;;;;1.25;1.25;;;;;20.90;52.05;101636.75;5028673;28;45474;-85
2021/09/11 11:02:01;;;;;;;;;3.00;2.25;;;;;20.88;52.13;101631.47;5026669;28;45482;-82
2021/09/11 11:04:34;;;;;;;;;3.00;2.50;;;;;20.86;52.04;101641.97;5023447;28;45727;-82
2021/09/11 11:07:03;;;;;;;;;2.25;1.25;;;;;20.85;51.93;101628.78;5037250;28;45397;-84
2021/09/11 11:09:44;;;;;;;;;2.00;2.00;;;;;20.84;51.68;101632.28;5022593;28;45336;-84
2021/09/11 11:12:12;;;;;;;;;3.00;2.00;;;;;20.78;51.84;101648.84;5034757;28;47066;-81
2021/09/11 11:14:47;;;;;;;;;2.00;2.00;;;;;20.79;51.77;101631.31;5018869;28;45297;-83
2021/09/11 11:17:14;;;;;;;;;1.50;1.50;;;;;20.86;51.26;101639.31;5018657;28;45240;-83
2021/09/11 11:19:52;;;;;;;;;2.75;2.00;;;;;20.97;51.59;101634.25;5024454;28;45525;-85
2021/09/11 11:22:27;;;;;;;;;1.50;1.50;;;;;21.15;50.78;101636.25;5024647;28;45352;-82
2021/09/11 11:24:53;;;;;;;;;2.00;2.00;;;;;21.33;50.50;101637.38;5026267;28;45384;-84